Time;durP1;ratioP1;P1;durP2;ratioP2;P2;SDS_P1;SDS_P2;PMS_P1;PMS_P2;Temp;Humidity;BMP_temperature;BMP_pressure;BME280_temperature;BME280_humidity;BME280_pressure;Samples;Min_cycle;Max_cycle;Signal;HPM_P1;HPM_P2
2021/05/23 06:03:31;;;;;;;4.13;1.13;;;12.30;99.90;;;;;;6261422;22;20036;-90
2021/05/23 06:47:41;;;;;;;3.22;0.90;;;12.80;99.90;;;;;;6197870;22;19920;-82
2021/05/23 06:50:11;;;;;;;3.25;0.60;;;12.90;99.90;;;;;;6184537;23;20008;-82
2021/05/23 06:52:38;;;;;;;2.75;0.75;;;13.00;99.90;;;;;;6209826;23;20020;-81
2021/05/23 06:55:07;;;;;;;4.78;0.80;;;13.10;99.90;;;;;;6179751;23;20308;-82
2021/05/23 06:57:34;;;;;;;3.63;0.88;;;13.20;99.90;;;;;;6205376;23;20011;-83
2021/05/23 07:00:03;;;;;;;6.22;0.90;;;13.30;99.90;;;;;;6190484;23;20016;-82
2021/05/23 07:02:31;;;;;;;2.40;0.80;;;13.30;99.90;;;;;;6179890;23;20249;-79
2021/05/23 07:04:59;;;;;;;5.28;1.00;;;13.30;99.90;;;;;;6178068;23;20041;-79
2021/05/23 07:07:29;;;;;;;3.40;1.00;;;13.40;99.90;;;;;;6200390;23;20044;-80
2021/05/23 07:09:58;;;;;;;2.22;0.73;;;13.50;99.90;;;;;;6153416;23;20040;-83
2021/05/23 07:12:28;;;;;;;1.85;0.90;;;13.60;99.90;;;;;;6205784;23;20012;-80
2021/05/23 07:14:55;;;;;;;4.88;0.88;;;13.80;99.90;;;;;;6191302;23;20009;-81
2021/05/23 07:17:24;;;;;;;2.55;0.73;;;13.80;99.90;;;;;;6217098;23;20008;-82
2021/05/23 07:19:51;;;;;;;6.78;1.70;;;13.90;99.90;;;;;;6220129;23;20012;-83
2021/05/23 07:22:22;;;;;;;4.03;0.90;;;14.00;99.90;;;;;;6221002;23;20011;-82
2021/05/23 07:24:51;;;;;;;3.70;0.68;;;14.00;99.90;;;;;;6220000;23;20012;-82
2021/05/23 07:27:19;;;;;;;3.90;0.85;;;13.90;99.90;;;;;;6196124;23;20008;-82
2021/05/23 07:29:50;;;;;;;2.03;0.60;;;13.90;99.90;;;;;;6197027;23;20013;-83
2021/05/23 07:32:18;;;;;;;3.35;1.00;;;13.80;99.90;;;;;;6196936;23;20004;-82
2021/05/23 07:34:46;;;;;;;1.33;0.50;;;13.90;99.90;;;;;;6217023;23;20008;-82
2021/05/23 07:37:15;;;;;;;5.28;1.20;;;14.10;99.90;;;;;;6220864;23;20008;-83
2021/05/23 07:39:45;;;;;;;1.58;0.68;;;14.20;99.90;;;;;;6196048;23;20009;-86
2021/05/23 07:42:15;;;;;;;2.83;0.52;;;14.40;99.70;;;;;;6196477;23;20011;-80
2021/05/23 07:44:44;;;;;;;3.78;0.57;;;14.20;99.10;;;;;;6196402;23;20007;-83
2021/05/23 07:47:14;;;;;;;3.72;0.70;;;14.30;98.50;;;;;;6196676;23;20004;-82
2021/05/23 07:49:41;;;;;;;1.55;0.50;;;14.30;97.80;;;;;;6219595;23;20043;-81
2021/05/23 07:52:10;;;;;;;1.45;0.68;;;14.40;97.30;;;;;;6196494;23;20008;-82
2021/05/23 07:54:38;;;;;;;3.17;0.65;;;14.40;96.30;;;;;;6191413;23;20020;-84
2021/05/23 07:57:07;;;;;;;3.05;0.80;;;14.40;96.50;;;;;;6181248;23;20011;-85
2021/05/23 07:59:35;;;;;;;0.40;0.32;;;14.30;96.00;;;;;;6178219;23;20048;-82
2021/05/23 08:02:06;;;;;;;1.13;0.45;;;14.30;96.90;;;;;;6192824;23;20015;-83
2021/05/23 08:04:38;;;;;;;5.70;1.17;;;14.10;97.70;;;;;;6170746;23;20004;-83
2021/05/23 08:07:07;;;;;;;3.45;0.73;;;14.20;97.50;;;;;;6170520;23;20027;-83
2021/05/23 08:09:35;;;;;;;3.25;1.45;;;14.10;97.70;;;;;;6192212;23;20031;-82
2021/05/23 08:12:03;;;;;;;1.75;0.55;;;14.10;97.70;;;;;;6216475;23;20019;-83
2021/05/23 08:14:31;;;;;;;3.00;0.85;;;14.20;97.70;;;;;;6193010;23;20009;-85
2021/05/23 08:16:59;;;;;;;;;;;14.20;97.00;;;;;;6208009;23;20016;-83
2021/05/23 08:19:27;;;;;;;3.92;0.77;;;14.30;97.00;;;;;;6188267;23;19927;-85
2021/05/23 08:21:54;;;;;;;1.88;0.73;;;14.50;96.30;;;;;;6211259;23;20009;-86
2021/05/23 08:24:23;;;;;;;2.20;0.77;;;14.80;95.90;;;;;;6207759;23;20024;-84
2021/05/23 08:26:50;;;;;;;1.88;0.63;;;15.10;95.20;;;;;;6225877;23;20023;-83
2021/05/23 08:29:17;;;;;;;3.17;0.70;;;15.40;94.80;;;;;;6226309;23;20036;-83
2021/05/23 08:31:46;;;;;;;4.65;0.75;;;15.40;93.40;;;;;;6200022;23;20040;-81
2021/05/23 08:34:17;;;;;;;4.00;0.68;;;15.60;92.50;;;;;;6204211;23;20028;-78
2021/05/23 08:36:45;;;;;;;1.35;0.60;;;15.30;93.20;;;;;;6208543;23;20206;-80
2021/05/23 08:39:12;;;;;;;1.60;0.57;;;14.90;94.20;;;;;;6185203;23;20019;-78
2021/05/23 08:41:39;;;;;;;2.67;0.85;;;15.00;93.70;;;;;;6181442;23;20026;-81
2021/05/23 08:44:09;;;;;;;3.55;0.85;;;15.40;91.20;;;;;;6202216;23;20044;-82
2021/05/23 08:46:46;;;;;;;1.52;0.38;;;15.50;90.80;;;;;;6206363;23;20019;-81
2021/05/23 08:49:44;;;;;;;2.50;0.90;;;15.30;90.80;;;;;;6185774;23;20008;-81
2021/05/23 08:52:26;;;;;;;3.55;0.80;;;15.60;90.50;;;;;;6177323;23;20045;-83
2021/05/23 08:54:53;;;;;;;0.70;0.38;;;15.90;87.50;;;;;;6179007;23;20043;-80
2021/05/23 08:57:23;;;;;;;0.40;0.20;;;15.70;87.40;;;;;;6229688;23;20072;-79
2021/05/23 08:59:54;;;;;;;1.95;0.70;;;15.40;89.00;;;;;;6205700;23;20008;-82
2021/05/23 09:02:26;;;;;;;2.63;0.50;;;15.60;90.20;;;;;;6177835;23;20044;-85
2021/05/23 09:05:01;;;;;;;2.65;0.98;;;16.00;85.70;;;;;;6175770;23;20060;-80
2021/05/23 09:07:30;;;;;;;3.25;0.70;;;16.10;84.10;;;;;;6179878;23;20015;-81
2021/05/23 09:10:01;;;;;;;1.35;0.60;;;16.00;83.30;;;;;;6178328;23;20037;-79
2021/05/23 09:12:28;;;;;;;2.22;0.70;;;15.80;83.60;;;;;;6177409;23;20343;-80
2021/05/23 09:14:58;;;;;;;2.63;0.65;;;16.20;82.70;;;;;;6200587;23;20052;-84
2021/05/23 09:17:28;;;;;;;1.63;0.52;;;16.40;81.40;;;;;;6200063;23;20064;-81
2021/05/23 09:19:57;;;;;;;2.85;0.70;;;16.30;82.00;;;;;;6202326;23;20044;-83
2021/05/23 09:22:28;;;;;;;2.15;0.75;;;16.30;80.60;;;;;;6175719;23;20270;-84
2021/05/23 09:25:02;;;;;;;4.25;0.80;;;16.10;82.60;;;;;;6204868;23;20048;-84
2021/05/23 09:27:34;;;;;;;2.33;1.33;;;15.90;83.50;;;;;;6239625;23;20012;-81
2021/05/23 09:30:10;;;;;;;3.72;0.75;;;15.60;84.20;;;;;;6178752;23;20012;-83
2021/05/23 09:32:44;;;;;;;2.47;0.75;;;15.50;84.40;;;;;;6202313;23;20044;-83
2021/05/23 09:35:17;;;;;;;2.58;0.73;;;15.50;85.30;;;;;;6223873;23;20020;-79
2021/05/23 09:37:56;;;;;;;4.57;0.70;;;15.50;85.90;;;;;;6185682;23;20012;-81
2021/05/23 09:40:25;;;;;;;2.17;0.60;;;15.50;87.10;;;;;;6180594;23;20040;-79
2021/05/23 09:43:02;;;;;;;1.67;0.60;;;15.40;85.60;;;;;;6181956;23;20036;-81
2021/05/23 09:45:50;;;;;;;1.98;0.50;;;15.30;84.30;;;;;;6192424;23;20024;-83
2021/05/23 09:49:04;;;;;;;2.80;1.00;;;15.30;82.20;;;;;;6242607;23;20017;-83
2021/05/23 09:52:02;;;;;;;2.22;0.82;;;15.10;85.60;;;;;;6185331;23;20031;-80
2021/05/23 09:54:31;;;;;;;2.70;0.70;;;14.70;90.90;;;;;;6183172;23;20019;-82
2021/05/23 09:57:19;;;;;;;0.68;0.45;;;14.20;99.10;;;;;;6182765;23;20012;-80
2021/05/23 10:08:19;;;;;;;1.92;0.65;;;14.00;98.60;;;;;;6172261;22;19911;-79
2021/05/23 10:37:33;;;;;;;1.95;0.77;;;15.10;93.80;;;;;;6173513;22;21031;-84
2021/05/23 10:40:24;;;;;;;1.25;0.60;;;15.10;93.60;;;;;;6187731;23;20016;-86
2021/05/23 10:43:04;;;;;;;1.53;0.77;;;15.40;90.90;;;;;;6215711;23;20028;-88
2021/05/23 10:45:49;;;;;;;1.33;0.60;;;15.80;89.50;;;;;;6213018;23;20020;-86
2021/05/23 10:48:22;;;;;;;2.70;0.82;;;16.00;87.10;;;;;;6220825;23;20005;-86
2021/05/23 10:57:24;;;;;;;1.75;0.63;;;15.10;90.30;;;;;;6258021;22;20024;-85
2021/05/23 11:00:06;;;;;;;2.30;0.80;;;15.30;89.90;;;;;;6200155;23;20043;-91
2021/05/23 11:02:41;;;;;;;3.05;0.57;;;15.80;87.90;;;;;;6204889;23;20049;-91
2021/05/23 11:05:19;;;;;;;1.13;0.38;;;17.60;80.30;;;;;;6205660;23;20048;-88
2021/05/23 11:08:33;;;;;;;2.67;0.40;;;18.90;71.90;;;;;;6222138;22;20015;-84
2021/05/23 11:14:24;;;;;;;2.00;0.70;;;16.60;80.30;;;;;;6259649;22;20255;-88
2021/05/23 11:17:00;;;;;;;7.38;0.75;;;16.60;80.00;;;;;;6234264;23;20019;-87
2021/05/23 11:19:37;;;;;;;2.05;0.70;;;16.60;80.80;;;;;;6207390;23;20019;-87
2021/05/23 11:22:05;;;;;;;2.20;0.68;;;17.90;77.90;;;;;;6206735;23;20032;-84
2021/05/23 11:24:51;;;;;;;2.13;0.73;;;19.40;71.10;;;;;;6237828;23;20012;-87
2021/05/23 11:27:35;;;;;;;1.33;0.60;;;19.30;68.10;;;;;;6246859;22;20021;-90
2021/05/23 11:30:14;;;;;;;2.58;0.60;;;18.80;71.40;;;;;;6233662;23;20044;-89
2021/05/23 11:33:01;;;;;;;2.10;0.60;;;19.70;66.60;;;;;;6206466;23;20061;-86
2021/05/23 11:35:35;;;;;;;0.95;0.52;;;20.20;62.20;;;;;;6208026;23;20044;-85
2021/05/23 11:38:04;;;;;;;3.55;0.50;;;19.80;60.30;;;;;;6230737;23;20040;-89
2021/05/23 11:40:43;;;;;;;1.10;0.50;;;19.80;61.30;;;;;;6228422;23;20410;-87
2021/05/23 11:43:14;;;;;;;2.67;0.50;;;19.80;61.80;;;;;;6204687;23;20073;-87
2021/05/23 11:46:01;;;;;;;1.60;0.60;;;20.10;60.30;;;;;;6205558;23;20044;-87
2021/05/23 11:48:36;;;;;;;3.63;0.77;;;19.50;61.20;;;;;;6230424;23;20039;-89
2021/05/23 11:51:19;;;;;;;4.55;0.90;;;18.80;63.40;;;;;;6232126;23;20048;-91
2021/05/23 11:53:48;;;;;;;1.80;0.82;;;18.20;66.20;;;;;;6206904;23;20004;-92
2021/05/23 11:56:21;;;;;;;3.42;0.80;;;17.70;68.60;;;;;;6205526;23;20019;-90
2021/05/23 11:58:54;;;;;;;2.78;0.80;;;17.20;71.10;;;;;;6207651;23;20044;-86
2021/05/23 12:01:26;;;;;;;3.03;0.90;;;18.00;70.10;;;;;;6205981;23;20051;-86
2021/05/23 12:04:05;;;;;;;1.98;0.80;;;18.10;68.90;;;;;;6230099;23;20261;-88
2021/05/23 12:06:39;;;;;;;1.15;0.63;;;18.60;67.20;;;;;;6210387;23;20016;-87
2021/05/23 12:09:15;;;;;;;2.03;0.57;;;19.30;64.40;;;;;;6247257;23;20019;-86
2021/05/23 12:11:49;;;;;;;3.55;0.75;;;20.20;60.30;;;;;;6219614;23;20004;-87
2021/05/23 12:14:25;;;;;;;3.15;0.70;;;19.70;60.70;;;;;;6238220;23;20023;-89
2021/05/23 12:17:06;;;;;;;1.55;0.70;;;18.50;63.80;;;;;;6207243;23;20011;-89
2021/05/23 12:19:47;;;;;;;4.18;0.85;;;17.70;67.80;;;;;;6208558;23;20048;-88
2021/05/23 12:22:20;;;;;;;2.25;0.75;;;17.60;69.30;;;;;;6232906;23;20044;-87
2021/05/23 12:25:09;;;;;;;1.73;0.82;;;18.30;67.60;;;;;;6256942;23;20048;-86
2021/05/23 12:27:45;;;;;;;4.10;0.98;;;18.60;65.50;;;;;;6207092;23;20043;-88
2021/05/23 12:30:18;;;;;;;3.28;0.90;;;18.30;65.10;;;;;;6206870;23;20012;-88
2021/05/23 12:32:53;;;;;;;3.25;1.13;;;19.20;63.60;;;;;;6257190;23;20237;-84
2021/05/23 12:35:25;;;;;;;4.65;1.00;;;19.30;62.70;;;;;;6230484;23;20049;-88
2021/05/23 12:37:59;;;;;;;1.35;0.80;;;19.00;63.70;;;;;;6207081;23;20039;-87
2021/05/23 12:40:30;;;;;;;2.47;1.02;;;18.90;63.80;;;;;;6232374;23;20052;-86
2021/05/23 12:43:10;;;;;;;1.77;0.90;;;19.90;61.90;;;;;;6207698;23;20340;-87
2021/05/23 12:45:43;;;;;;;1.58;0.68;;;20.00;58.60;;;;;;6212077;23;20023;-88
2021/05/23 12:48:14;;;;;;;2.85;0.95;;;19.20;59.00;;;;;;6192045;23;20019;-89
2021/05/23 12:50:47;;;;;;;1.80;0.73;;;18.40;61.30;;;;;;6241782;23;20039;-90
2021/05/23 12:53:24;;;;;;;2.10;0.85;;;18.10;62.30;;;;;;6216838;23;20068;-87
2021/05/23 12:55:57;;;;;;;2.53;0.73;;;18.70;61.90;;;;;;6262122;23;20012;-86
2021/05/23 12:58:25;;;;;;;4.25;0.70;;;20.10;59.20;;;;;;6231573;23;20040;-86
2021/05/23 13:00:53;;;;;;;2.78;0.60;;;22.10;54.80;;;;;;6229726;23;20074;-81
2021/05/23 13:03:25;;;;;;;1.10;0.52;;;23.40;50.20;;;;;;6256309;23;20047;-85
2021/05/23 13:06:00;;;;;;;0.77;0.52;;;23.40;48.80;;;;;;6230116;23;20052;-83
2021/05/23 13:08:33;;;;;;;1.35;0.68;;;23.10;48.80;;;;;;6227974;23;20047;-83
2021/05/23 13:11:03;;;;;;;1.90;0.60;;;23.10;48.70;;;;;;6205685;23;20078;-81
2021/05/23 13:13:44;;;;;;;4.15;0.80;;;22.50;49.10;;;;;;6229519;23;20060;-86
2021/05/23 13:16:12;;;;;;;1.20;0.60;;;22.30;50.20;;;;;;6205331;23;20036;-84
2021/05/23 13:18:56;;;;;;;1.30;0.55;;;22.90;49.00;;;;;;6206641;23;20246;-85
2021/05/23 13:21:29;;;;;;;1.10;0.60;;;23.10;48.40;;;;;;6205673;23;20040;-85
2021/05/23 13:24:00;;;;;;;1.77;0.40;;;23.80;46.90;;;;;;6256038;23;20035;-85
2021/05/23 13:26:53;;;;;;;0.60;0.40;;;23.10;45.50;;;;;;6206190;23;20339;-85
2021/05/23 13:29:41;;;;;;;0.68;0.40;;;23.60;45.70;;;;;;6234850;23;20044;-80
2021/05/23 13:32:26;;;;;;;1.67;0.70;;;23.40;46.40;;;;;;6206071;23;20036;-83
2021/05/23 13:35:01;;;;;;;2.15;0.60;;;23.50;45.90;;;;;;6205955;23;20049;-86
2021/05/23 13:37:35;;;;;;;0.68;0.50;;;22.30;46.60;;;;;;6206587;23;20407;-86
2021/05/23 13:40:05;;;;;;;2.17;0.50;;;21.70;47.50;;;;;;6204416;23;20045;-84
2021/05/23 13:42:37;;;;;;;1.13;0.50;;;21.90;47.60;;;;;;6230700;23;20036;-88
2021/05/23 13:45:25;;;;;;;1.67;0.60;;;21.10;48.50;;;;;;6207813;23;20092;-86
2021/05/23 13:48:09;;;;;;;2.42;0.40;;;20.70;49.00;;;;;;6231861;23;20040;-86
2021/05/23 13:50:44;;;;;;;2.42;0.68;;;20.10;50.40;;;;;;6201094;23;20315;-88
2021/05/23 13:53:28;;;;;;;1.48;0.77;;;19.70;51.90;;;;;;6231295;23;20045;-87
2021/05/23 13:55:56;;;;;;;1.63;0.75;;;19.10;53.40;;;;;;6206295;23;20070;-88
2021/05/23 13:58:27;;;;;;;1.33;0.60;;;18.80;54.50;;;;;;6206494;23;20351;-81
2021/05/23 14:00:55;;;;;;;2.42;1.05;;;18.20;55.80;;;;;;6239973;23;20233;-84
2021/05/23 14:04:00;;;;;;;1.10;0.45;;;17.80;57.10;;;;;;6207639;23;20043;-91
2021/05/23 14:06:30;;;;;;;1.27;0.60;;;17.60;58.20;;;;;;6208140;23;20241;-86
2021/05/23 14:09:29;;;;;;;1.05;0.52;;;17.40;59.90;;;;;;6227056;22;20003;-83
2021/05/23 14:12:19;;;;;;;2.10;0.57;;;16.80;63.10;;;;;;6235058;22;20051;-85
2021/05/23 14:20:52;;;;;;;1.27;0.47;;;16.80;62.50;;;;;;6271945;22;20024;-83
2021/05/23 14:26:11;;;;;;;6.53;0.80;;;17.60;60.70;;;;;;6257309;23;20040;-89
2021/05/23 14:28:38;;;;;;;0.80;0.50;;;19.90;55.30;;;;;;6257529;23;20362;-85
2021/05/23 14:31:17;;;;;;;1.05;0.40;;;19.40;54.60;;;;;;6269979;22;20004;-83
2021/05/23 14:34:00;;;;;;;1.70;0.50;;;18.20;57.00;;;;;;6252621;22;20003;-84
2021/05/23 14:36:31;;;;;;;1.65;0.70;;;18.00;58.30;;;;;;6225892;23;20008;-85
2021/05/23 14:38:59;;;;;;;;;;;18.80;57.40;;;;;;6249883;22;20004;-89
2021/05/23 14:41:29;;;;;;;4.20;1.63;;;19.20;54.60;;;;;;6246475;23;19930;-91
2021/05/23 14:44:09;;;;;;;8.18;0.95;;;20.20;53.00;;;;;;6241708;23;20012;-91
2021/05/23 14:46:39;;;;;;;0.60;0.40;;;20.90;50.60;;;;;;6235020;23;20332;-89
2021/05/23 14:49:10;;;;;;;2.83;0.70;;;20.40;50.70;;;;;;6247236;23;20019;-90
2021/05/23 14:51:51;;;;;;;1.52;0.50;;;19.90;52.10;;;;;;6239219;23;20008;-91
2021/05/23 14:54:18;;;;;;;1.10;0.52;;;20.30;51.30;;;;;;6260307;23;20237;-88
2021/05/23 14:56:47;;;;;;;2.88;0.75;;;20.40;51.50;;;;;;6230847;23;20048;-86
2021/05/23 14:59:21;;;;;;;1.10;0.60;;;19.70;52.70;;;;;;6229813;23;20044;-87
2021/05/23 15:01:48;;;;;;;2.58;0.85;;;19.30;53.90;;;;;;6229898;23;20238;-87
2021/05/23 15:04:18;;;;;;;1.60;0.60;;;19.10;54.40;;;;;;6254719;23;20044;-80
2021/05/23 15:06:45;;;;;;;1.27;0.52;;;18.80;53.50;;;;;;6254803;23;20051;-82
2021/05/23 15:09:15;;;;;;;1.95;0.82;;;18.50;54.30;;;;;;6230622;23;20045;-86
2021/05/23 15:11:45;;;;;;;4.97;1.13;;;18.50;55.20;;;;;;6257380;23;20037;-86
2021/05/23 15:14:19;;;;;;;4.57;0.80;;;18.70;54.50;;;;;;6230889;23;20259;-85
2021/05/23 15:16:50;;;;;;;2.17;0.82;;;19.00;54.30;;;;;;6232872;23;20011;-86
2021/05/23 15:19:18;;;;;;;6.38;0.70;;;19.40;53.20;;;;;;6239501;23;20023;-85
2021/05/23 15:21:50;;;;;;;3.75;0.90;;;21.00;51.70;;;;;;6248536;23;20023;-82
2021/05/23 15:24:21;;;;;;;2.17;0.65;;;23.90;46.50;;;;;;6242948;23;20008;-83
2021/05/23 15:26:56;;;;;;;2.92;0.75;;;25.70;41.70;;;;;;6264112;23;20016;-83
2021/05/23 15:32:19;;;;;;;2.78;0.70;;;25.20;42.60;;;;;;6260484;23;20032;-83
2021/05/23 15:34:50;;;;;;;1.80;0.70;;;26.10;40.60;;;;;;6244336;23;20023;-82
2021/05/23 15:37:19;;;;;;;2.28;0.80;;;26.10;39.80;;;;;;6271954;23;20004;-86
2021/05/23 15:39:47;;;;;;;;;;;24.40;41.80;;;;;;6267997;23;20015;-85
2021/05/23 15:42:20;;;;;;;0.40;0.35;;;25.00;41.20;;;;;;6239723;23;19919;-84
2021/05/23 15:44:49;;;;;;;3.35;0.95;;;25.70;40.00;;;;;;6237263;23;20023;-82
2021/05/23 15:47:28;;;;;;;2.50;0.90;;;26.10;39.50;;;;;;6233735;23;20011;-85
2021/05/23 15:49:57;;;;;;;2.58;0.90;;;24.80;40.70;;;;;;6273414;22;20096;-85
2021/05/23 15:52:29;;;;;;;4.93;0.95;;;25.40;40.50;;;;;;6255870;23;20015;-83
2021/05/23 15:55:00;;;;;;;2.28;0.70;;;25.50;40.20;;;;;;6231959;23;20052;-83
2021/05/23 15:57:28;;;;;;;3.25;0.98;;;25.60;39.60;;;;;;6231367;23;20044;-84
2021/05/23 15:59:59;;;;;;;3.50;1.10;;;24.50;40.60;;;;;;6231187;23;20323;-84
2021/05/23 16:02:28;;;;;;;2.28;0.90;;;24.80;40.60;;;;;;6232734;23;20027;-87
2021/05/23 16:05:00;;;;;;;5.07;2.03;;;23.40;41.30;;;;;;6206632;23;20048;-85
2021/05/23 16:07:31;;;;;;;1.80;0.80;;;23.70;41.10;;;;;;6230597;23;20052;-85
2021/05/23 16:10:00;;;;;;;3.03;0.90;;;24.30;40.20;;;;;;6230287;23;20380;-88
2021/05/23 16:12:32;;;;;;;3.42;0.88;;;23.40;41.20;;;;;;6237007;23;20019;-88
2021/05/23 16:15:03;;;;;;;2.63;0.95;;;20.50;45.90;;;;;;6264206;23;20015;-90
2021/05/23 16:17:31;;;;;;;0.95;0.60;;;19.30;49.00;;;;;;6232506;23;20052;-87
2021/05/23 16:20:01;;;;;;;5.65;0.88;;;19.20;49.60;;;;;;6259876;23;20260;-88
2021/05/23 16:22:36;;;;;;;2.40;1.00;;;19.60;48.10;;;;;;6235111;23;20020;-86
2021/05/23 16:25:10;;;;;;;1.95;0.80;;;19.70;48.00;;;;;;6234155;23;20040;-87
2021/05/23 16:27:38;;;;;;;3.88;0.93;;;19.20;49.00;;;;;;6267979;23;20016;-89
2021/05/23 16:30:08;;;;;;;5.38;1.48;;;19.00;49.90;;;;;;6264573;23;20081;-87
2021/05/23 16:32:41;;;;;;;2.72;1.17;;;18.80;50.90;;;;;;6233685;23;20008;-86
2021/05/23 16:35:11;;;;;;;3.53;0.90;;;18.80;51.30;;;;;;6229077;23;20044;-86
2021/05/23 16:37:40;;;;;;;3.60;1.00;;;18.80;51.00;;;;;;6256421;23;20044;-86
2021/05/23 16:40:13;;;;;;;2.00;0.90;;;18.70;51.70;;;;;;6281860;22;20056;-87
2021/05/23 16:42:47;;;;;;;2.60;0.68;;;18.80;51.80;;;;;;6257319;22;20039;-89
2021/05/23 16:45:16;;;;;;;3.15;1.10;;;18.50;52.10;;;;;;6262909;23;20012;-84
2021/05/23 16:47:45;;;;;;;3.22;0.90;;;18.20;53.20;;;;;;6253928;23;20044;-89
2021/05/23 16:50:13;;;;;;;2.80;1.02;;;18.20;53.40;;;;;;6229842;23;20108;-82
2021/05/23 16:52:46;;;;;;;4.88;1.23;;;18.00;53.50;;;;;;6254360;23;20250;-88
2021/05/23 16:55:18;;;;;;;2.97;0.80;;;18.30;53.10;;;;;;6255608;23;20143;-84
2021/05/23 16:57:59;;;;;;;3.25;0.80;;;18.00;53.50;;;;;;6259998;22;20012;-88
2021/05/23 17:00:33;;;;;;;3.60;1.05;;;17.90;53.70;;;;;;6256323;23;20262;-82
2021/05/23 17:03:04;;;;;;;2.97;0.75;;;18.10;53.70;;;;;;6259147;23;20040;-95
2021/05/23 17:05:33;;;;;;;3.63;1.00;;;18.50;51.70;;;;;;6272064;22;20008;-89
2021/05/23 17:08:05;;;;;;;3.00;1.02;;;19.20;50.30;;;;;;6239387;23;20019;-87
2021/05/23 17:10:37;;;;;;;6.82;1.33;;;19.30;50.00;;;;;;6236348;23;20012;-88
2021/05/23 17:13:09;;;;;;;5.13;1.08;;;19.40;49.40;;;;;;6234443;23;20012;-84
2021/05/23 17:15:53;;;;;;;2.78;1.02;;;18.90;50.40;;;;;;6243561;23;20015;-85
2021/05/23 17:18:25;;;;;;;1.48;0.80;;;18.20;52.10;;;;;;6243829;23;20012;-88
2021/05/23 17:20:53;;;;;;;3.38;1.00;;;18.00;52.70;;;;;;6236424;23;20024;-89
2021/05/23 17:23:26;;;;;;;2.30;0.85;;;17.90;53.10;;;;;;6267185;23;20015;-83
2021/05/23 17:25:57;;;;;;;2.63;1.17;;;17.50;54.10;;;;;;6241539;23;20015;-86
2021/05/23 17:28:30;;;;;;;2.88;0.80;;;17.30;53.90;;;;;;6262665;23;20007;-86
2021/05/23 17:31:00;;;;;;;2.08;0.82;;;17.20;54.00;;;;;;6242708;23;20007;-87
2021/05/23 17:33:37;;;;;;;2.45;0.85;;;17.10;54.30;;;;;;6256033;22;20011;-83
2021/05/23 17:36:15;;;;;;;2.33;1.08;;;17.00;54.90;;;;;;6244498;23;20016;-85
2021/05/23 17:38:56;;;;;;;3.42;1.00;;;17.10;54.50;;;;;;6235331;23;20023;-87
2021/05/23 17:41:26;;;;;;;6.65;1.30;;;17.20;54.30;;;;;;6233305;23;20015;-90
2021/05/23 17:43:54;;;;;;;4.18;1.55;;;17.30;54.10;;;;;;6232884;23;20023;-88
2021/05/23 17:46:24;;;;;;;3.20;1.00;;;17.10;54.00;;;;;;6233369;23;20012;-87
2021/05/23 17:49:07;;;;;;;1.08;0.52;;;17.00;54.30;;;;;;6217808;23;20008;-86
2021/05/23 17:51:37;;;;;;;2.55;0.90;;;16.80;54.90;;;;;;6250150;23;20008;-85
2021/05/23 17:54:08;;;;;;;4.45;1.50;;;16.50;55.60;;;;;;6237765;23;20031;-89
2021/05/23 17:56:42;;;;;;;4.95;1.55;;;16.50;56.40;;;;;;6235333;23;20016;-90
2021/05/23 17:59:20;;;;;;;2.58;0.98;;;16.50;56.40;;;;;;6233753;23;20032;-87
2021/05/23 18:01:52;;;;;;;6.93;1.00;;;16.50;56.50;;;;;;6231185;23;20040;-88
2021/05/23 18:04:27;;;;;;;3.08;1.20;;;16.50;56.70;;;;;;6207614;23;20043;-86
2021/05/23 18:06:58;;;;;;;5.15;1.92;;;16.40;57.00;;;;;;6231361;23;20052;-90
2021/05/23 18:09:32;;;;;;;3.22;1.20;;;16.40;57.40;;;;;;6229535;23;20036;-89
2021/05/23 18:12:10;;;;;;;2.05;0.95;;;16.40;57.70;;;;;;6257291;23;20043;-88
2021/05/23 18:15:19;;;;;;;1.83;0.90;;;16.40;58.00;;;;;;6233022;23;20019;-87
2021/05/23 18:17:54;;;;;;;4.00;1.17;;;16.30;58.40;;;;;;6255380;23;20048;-89
2021/05/23 18:20:24;;;;;;;4.90;1.67;;;16.20;58.90;;;;;;6257057;23;20060;-87
2021/05/23 18:23:05;;;;;;;3.17;1.10;;;16.20;59.20;;;;;;6209332;23;20267;-88
2021/05/23 18:25:41;;;;;;;3.50;1.55;;;16.10;59.50;;;;;;6258005;23;20036;-89
2021/05/23 18:28:16;;;;;;;3.50;1.13;;;16.10;59.80;;;;;;6234770;23;20043;-88
2021/05/23 18:30:45;;;;;;;3.20;1.20;;;16.10;60.00;;;;;;6234959;23;20013;-89
2021/05/23 18:33:17;;;;;;;2.50;1.10;;;16.00;60.20;;;;;;6233452;22;20040;-88
2021/05/23 18:35:51;;;;;;;2.70;1.20;;;16.00;60.30;;;;;;6235903;23;20015;-85
2021/05/23 18:38:41;;;;;;;6.05;1.70;;;15.90;60.70;;;;;;6214686;23;20018;-85
2021/05/23 18:41:10;;;;;;;5.80;1.70;;;15.80;61.10;;;;;;6213940;23;20008;-87
2021/05/23 18:43:42;;;;;;;3.08;1.38;;;15.80;61.70;;;;;;6242334;23;20008;-84
2021/05/23 18:46:12;;;;;;;4.90;1.40;;;15.70;62.10;;;;;;6219121;23;20004;-82
2021/05/23 18:51:30;;;;;;;3.42;1.55;;;15.60;62.90;;;;;;6208130;23;20022;-87
2021/05/23 18:54:08;;;;;;;4.75;1.45;;;15.50;63.30;;;;;;6236862;23;20012;-85
2021/05/23 18:56:58;;;;;;;4.63;1.70;;;15.60;63.20;;;;;;6212657;23;20011;-86
2021/05/23 18:59:25;;;;;;;4.85;1.80;;;15.50;63.50;;;;;;6233083;23;20019;-89
2021/05/23 19:02:03;;;;;;;3.75;1.83;;;15.50;63.90;;;;;;6211387;23;20019;-87
2021/05/23 19:04:37;;;;;;;5.82;1.85;;;15.50;63.80;;;;;;6186710;23;20016;-87
2021/05/23 19:07:05;;;;;;;8.35;1.60;;;15.50;64.20;;;;;;6209786;23;20396;-88
2021/05/23 19:09:42;;;;;;;3.65;1.60;;;15.50;64.50;;;;;;6229397;23;20007;-89
2021/05/23 19:12:13;;;;;;;3.65;1.58;;;15.40;64.60;;;;;;6214779;23;20016;-87
2021/05/23 19:14:52;;;;;;;4.57;1.80;;;15.40;64.80;;;;;;6238535;23;20012;-88
2021/05/23 19:17:35;;;;;;;4.57;1.90;;;15.40;65.00;;;;;;6224194;23;20016;-85
2021/05/23 19:20:07;;;;;;;3.67;1.45;;;15.40;65.30;;;;;;6238719;23;20012;-89
2021/05/23 19:22:47;;;;;;;3.70;1.58;;;15.30;65.50;;;;;;6241011;23;20019;-87
2021/05/23 19:25:32;;;;;;;4.15;1.77;;;15.30;65.80;;;;;;6214599;23;20012;-85
2021/05/23 19:28:02;;;;;;;3.70;1.48;;;15.30;66.00;;;;;;6242214;23;20015;-87
2021/05/23 19:31:01;;;;;;;4.80;1.92;;;15.30;66.00;;;;;;6273032;23;20011;-87
2021/05/23 19:33:38;;;;;;;6.93;2.25;;;15.30;66.30;;;;;;6245989;23;20024;-83
2021/05/23 19:36:26;;;;;;;5.93;1.88;;;15.20;66.40;;;;;;6243462;23;20331;-87
2021/05/23 19:39:00;;;;;;;3.78;1.80;;;15.30;66.60;;;;;;6219572;23;20020;-86
2021/05/23 19:41:30;;;;;;;4.93;1.70;;;15.20;66.50;;;;;;6221052;23;20011;-86
2021/05/23 19:44:00;;;;;;;3.80;1.40;;;15.30;66.50;;;;;;6221416;23;20019;-86
2021/05/23 19:46:34;;;;;;;4.68;2.00;;;15.20;66.90;;;;;;6219832;23;20012;-87
2021/05/23 19:49:19;;;;;;;5.38;1.92;;;15.20;67.20;;;;;;6216320;23;20019;-87
2021/05/23 19:51:54;;;;;;;2.70;1.60;;;15.20;67.50;;;;;;6213690;23;20012;-85
2021/05/23 19:54:27;;;;;;;3.33;1.65;;;15.10;67.70;;;;;;6225522;23;20012;-85
2021/05/23 19:56:59;;;;;;;8.48;2.00;;;15.00;68.10;;;;;;6249330;23;20015;-85
2021/05/23 19:59:35;;;;;;;2.80;1.38;;;15.00;68.80;;;;;;6248630;22;20015;-87
2021/05/23 20:02:09;;;;;;;4.55;1.98;;;15.00;69.10;;;;;;6195530;23;20315;-88
2021/05/23 20:04:44;;;;;;;6.78;1.77;;;14.90;69.70;;;;;;6211027;23;20019;-89
2021/05/23 20:07:21;;;;;;;3.53;1.88;;;14.90;70.20;;;;;;6217637;23;20003;-90
2021/05/23 20:09:55;;;;;;;;;;;15.00;70.30;;;;;;6235524;23;20341;-85
2021/05/23 20:12:23;;;;;;;6.88;2.13;;;15.00;70.70;;;;;;6233138;23;19928;-89
2021/05/23 20:15:03;;;;;;;3.55;1.40;;;14.90;71.10;;;;;;6208724;23;20008;-87
2021/05/23 20:17:54;;;;;;;4.70;1.55;;;14.90;71.50;;;;;;6210072;23;20007;-85
2021/05/23 20:20:28;;;;;;;2.50;1.20;;;14.80;72.10;;;;;;6233889;23;20040;-88
2021/05/23 20:23:23;;;;;;;2.92;1.40;;;14.70;71.90;;;;;;6209789;23;20008;-89
2021/05/23 20:26:08;;;;;;;3.33;1.30;;;14.70;72.40;;;;;;6223378;23;20040;-88
2021/05/23 20:28:55;;;;;;;4.00;1.58;;;14.60;72.70;;;;;;6240486;23;20016;-85
2021/05/23 20:31:37;;;;;;;6.05;1.80;;;14.60;72.80;;;;;;6209987;23;20012;-84
2021/05/23 20:34:12;;;;;;;5.20;1.73;;;14.50;73.30;;;;;;6222860;23;20027;-82
2021/05/23 20:36:59;;;;;;;4.13;1.20;;;14.50;73.80;;;;;;6225068;23;20000;-84
2021/05/23 20:39:49;;;;;;;4.05;1.50;;;14.40;74.20;;;;;;6250599;23;20012;-84
2021/05/23 20:42:23;;;;;;;3.92;1.50;;;14.30;75.40;;;;;;6226351;23;20016;-84
2021/05/23 20:44:54;;;;;;;3.45;1.42;;;14.30;76.00;;;;;;6252183;23;20008;-86
2021/05/23 20:47:27;;;;;;;3.65;1.33;;;14.20;76.70;;;;;;6246597;23;20011;-85
2021/05/23 20:50:36;;;;;;;4.57;2.25;;;14.20;77.50;;;;;;6225779;23;20019;-83
2021/05/23 20:56:06;;;;;;;4.75;1.48;;;14.10;79.00;;;;;;6223153;23;20012;-78
2021/05/23 20:58:40;;;;;;;3.13;1.48;;;14.00;79.80;;;;;;6233039;23;20044;-80
2021/05/23 21:01:09;;;;;;;3.05;1.30;;;13.90;81.00;;;;;;6263476;23;20027;-79
2021/05/23 21:03:55;;;;;;;2.45;1.02;;;13.90;80.70;;;;;;6241482;23;20023;-84
2021/05/23 22:50:57;;;;;;;4.20;1.30;;;12.30;99.50;;;;;;6242464;22;20013;-92
2021/05/23 23:11:53;;;;;;;4.05;1.75;;;12.10;99.10;;;;;;6203695;22;20017;-91
2021/05/23 23:14:26;;;;;;;3.03;1.40;;;12.00;99.70;;;;;;6181998;23;20231;-92